^^
Saratoga-Weather Station Historical Data
Daily Summary for May 3, 2020 Units:  English    Metric   Both
Daily Weekly Monthly Yearly Custom
  High: Low: Average:
Temperature: 70.5 °F 60.4 °F 64.4 °F
Dew Point: 59.4 °F 54.5 °F 56.1 °F
Humidity: 88% 59% 75%
Wind Speed: 8.9mph 0mph 1.4mph
Wind Gust: 11mph - -
Wind- - West
Pressure: 29.9 in 29.8 in -
Precipitation: 0.01 in    
Historical Graphs
 
 
Tabular Data for May 3, 2020
Time Temperature Dew Point Pressure Wind Wind Speed Wind Gust Humidity Rainfall Rate (Hourly) solar
00:00 66.6 °F 54.9 °F 29.9 in West 2.9 mph 3 mph 66% 0 in 0 W/m2
00:05 66.6 °F 55.2 °F 29.9 in WSW 2 mph 3 mph 67% 0 in 0 W/m2
00:10 66.6 °F 55.2 °F 29.9 in SW 4 mph 4 mph 67% 0 in 0 W/m2
00:15 66.6 °F 55.2 °F 29.9 in West 2 mph 3 mph 67% 0 in 0 W/m2
00:20 66.6 °F 55.6 °F 29.9 in WNW 2 mph 4 mph 68% 0 in 0 W/m2
00:26 66.4 °F 55.6 °F 29.9 in SW 2.9 mph 3 mph 68% 0 in 0 W/m2
00:31 66.4 °F 55.6 °F 29.9 in West 2.9 mph 4 mph 68% 0 in 0 W/m2
00:36 66 °F 55.6 °F 29.9 in West 0.9 mph 3 mph 69% 0 in 0 W/m2
00:41 65.8 °F 55.4 °F 29.9 in West 2 mph 4 mph 69% 0 in 0 W/m2
00:46 65.7 °F 55.6 °F 29.9 in West 0.9 mph 3 mph 70% 0 in 0 W/m2
00:51 65.5 °F 55.4 °F 29.9 in West 2 mph 4 mph 70% 0 in 0 W/m2
00:56 65.3 °F 55.2 °F 29.9 in West 0.9 mph 2 mph 70% 0 in 0 W/m2
01:01 65.1 °F 55.4 °F 29.9 in WSW 0.9 mph 3 mph 71% 0 in 0 W/m2
01:06 64.9 °F 55.4 °F 29.9 in West 2 mph 3 mph 71% 0 in 0 W/m2
01:11 64.9 °F 55.8 °F 29.9 in West 2 mph 3 mph 72% 0 in 0 W/m2
01:16 64.9 °F 55.8 °F 29.9 in West 2 mph 3 mph 72% 0 in 0 W/m2
01:21 64.8 °F 55.6 °F 29.9 in West 2 mph 2 mph 72% 0 in 0 W/m2
01:26 64.6 °F 55.4 °F 29.9 in West 2 mph 3 mph 72% 0 in 0 W/m2
01:31 64.4 °F 55.6 °F 29.9 in WSW 2 mph 3 mph 73% 0 in 0 W/m2
01:36 64.2 °F 55.4 °F 29.9 in West 2 mph 6 mph 73% 0 in 0 W/m2
01:41 64.2 °F 55.8 °F 29.9 in Calm   4 mph 74% 0 in 0 W/m2
01:46 64 °F 55.6 °F 29.9 in West 2 mph 3 mph 74% 0 in 0 W/m2
01:52 64 °F 55.6 °F 29.9 in WNW 0.9 mph 4 mph 74% 0 in 0 W/m2
01:57 63.9 °F 55.4 °F 29.9 in West 2 mph 2 mph 74% 0 in 0 W/m2
02:02 63.9 °F 55.8 °F 29.9 in West 2 mph 3 mph 75% 0 in 0 W/m2
02:07 63.7 °F 55.6 °F 29.9 in Calm   3 mph 75% 0 in 0 W/m2
02:12 63.7 °F 55.6 °F 29.9 in West 0.9 mph 1 mph 75% 0 in 0 W/m2
02:17 63.7 °F 55.6 °F 29.9 in West 0.9 mph 2 mph 75% 0 in 0 W/m2
02:22 63.5 °F 55.4 °F 29.9 in West 0.9 mph 3 mph 75% 0 in 0 W/m2
02:27 63.3 °F 55.6 °F 29.9 in Calm   2 mph 76% 0 in 0 W/m2
02:32 63.1 °F 55.4 °F 29.9 in West 0.9 mph 3 mph 76% 0 in 0 W/m2
02:37 63 °F 55.6 °F 29.9 in Calm     77% 0 in 0 W/m2
02:42 62.8 °F 55.4 °F 29.9 in WSW 0.9 mph 2 mph 77% 0 in 0 W/m2
02:47 62.8 °F 55.4 °F 29.9 in WSW 2 mph 3 mph 77% 0 in 0 W/m2
02:52 62.8 °F 55.8 °F 29.9 in Calm   1 mph 78% 0 in 0 W/m2
02:57 62.6 °F 55.6 °F 29.9 in WSW 0.9 mph 2 mph 78% 0 in 0 W/m2
03:02 62.4 °F 55.4 °F 29.9 in SW 0.9 mph 2 mph 78% 0 in 0 W/m2
03:07 62.6 °F 55.6 °F 29.9 in Calm   3 mph 78% 0 in 0 W/m2
03:12 62.6 °F 55.6 °F 29.9 in West 0.9 mph 1 mph 78% 0 in 0 W/m2
03:17 62.4 °F 55.4 °F 29.9 in WSW 0.9 mph 2 mph 78% 0 in 0 W/m2
03:22 62.2 °F 55.2 °F 29.9 in Calm     78% 0 in 0 W/m2
03:27 62.1 °F 55.4 °F 29.9 in Calm     79% 0 in 0 W/m2
03:32 62.1 °F 55.4 °F 29.9 in Calm     79% 0 in 0 W/m2
03:37 61.9 °F 55.2 °F 29.9 in Calm   1 mph 79% 0 in 0 W/m2
03:42 61.9 °F 55.2 °F 29.9 in Calm   1 mph 79% 0 in 0 W/m2
03:47 61.9 °F 55.2 °F 29.9 in WSW 0.9 mph 1 mph 79% 0 in 0 W/m2
03:52 61.9 °F 55.2 °F 29.9 in Calm   1 mph 79% 0 in 0 W/m2
03:57 61.9 °F 55.2 °F 29.9 in Calm   1 mph 79% 0 in 0 W/m2
04:02 61.9 °F 55.2 °F 29.9 in Calm   1 mph 79% 0 in 0 W/m2
04:07 61.9 °F 55.2 °F 29.9 in Calm   2 mph 79% 0 in 0 W/m2
04:12 62.1 °F 55.4 °F 29.9 in Calm   1 mph 79% 0 in 0 W/m2
04:17 62.1 °F 55.4 °F 29.9 in Calm   2 mph 79% 0 in 0 W/m2
04:22 62.2 °F 55.6 °F 29.9 in WNW 0.9 mph 1 mph 79% 0 in 0 W/m2
04:28 62.2 °F 55.6 °F 29.9 in Calm     79% 0 in 0 W/m2
04:33 62.2 °F 55.6 °F 29.9 in Calm     79% 0 in 0 W/m2
04:38 62.2 °F 55.6 °F 29.9 in Calm   1 mph 79% 0 in 0 W/m2
04:43 62.1 °F 55.4 °F 29.9 in Calm     79% 0 in 0 W/m2
04:48 62.1 °F 55.4 °F 29.9 in Calm   1 mph 79% 0 in 0 W/m2
04:53 62.1 °F 55.8 °F 29.9 in Calm   2 mph 80% 0 in 0 W/m2
04:58 61.9 °F 55.6 °F 29.9 in Calm   1 mph 80% 0 in 0 W/m2
05:03 61.9 °F 55.2 °F 29.9 in NW 2.9 mph 3 mph 79% 0 in 0 W/m2
05:08 62.1 °F 55.4 °F 29.9 in NW 2 mph 2 mph 79% 0 in 0 W/m2
05:13 62.2 °F 55.6 °F 29.9 in Calm   1 mph 79% 0 in 0 W/m2
05:18 62.2 °F 55.6 °F 29.9 in Calm   1 mph 79% 0 in 0 W/m2
05:23 62.1 °F 55.4 °F 29.9 in SW 0.9 mph 2 mph 79% 0 in 0 W/m2
05:28 62.1 °F 55.4 °F 29.9 in Calm   1 mph 79% 0 in 0 W/m2
05:33 61.9 °F 55.2 °F 29.9 in West 0.9 mph 1 mph 79% 0 in 0 W/m2
05:38 61.9 °F 55.2 °F 29.9 in Calm   5 mph 79% 0 in 0 W/m2
05:43 62.1 °F 55.4 °F 29.9 in West 0.9 mph 3 mph 79% 0 in 0 W/m2
05:48 62.2 °F 55.2 °F 29.9 in West 0.9 mph 4 mph 78% 0 in 0 W/m2
05:53 62.2 °F 55.2 °F 29.9 in West 2 mph 2 mph 78% 0 in 0 W/m2
05:58 62.2 °F 55.2 °F 29.9 in WNW 2 mph 2 mph 78% 0 in 0 W/m2
06:03 62.2 °F 55.2 °F 29.9 in Calm   2 mph 78% 0 in 0 W/m2
06:08 62.1 °F 55.4 °F 29.9 in WNW 0.9 mph 2 mph 79% 0 in 5 W/m2
06:13 62.1 °F 55.4 °F 29.9 in Calm   1 mph 79% 0 in 7 W/m2
06:19 61.9 °F 55.2 °F 29.9 in Calm     79% 0 in 11 W/m2
06:24 61.9 °F 55.2 °F 29.9 in Calm   1 mph 79% 0 in 12 W/m2
06:29 61.7 °F 55 °F 29.9 in SW 2 mph 2 mph 79% 0 in 19 W/m2
06:34 61.5 °F 54.9 °F 29.9 in Calm   1 mph 79% 0 in 25 W/m2
06:39 61.5 °F 54.9 °F 29.9 in SE 2 mph 2 mph 79% 0 in 26 W/m2
06:44 61.7 °F 54.9 °F 29.9 in Calm   1 mph 78% 0 in 28 W/m2
06:49 61.7 °F 54.9 °F 29.9 in Calm   1 mph 78% 0 in 26 W/m2
06:54 61.7 °F 54.9 °F 29.9 in Calm   3 mph 78% 0 in 28 W/m2
06:59 61.9 °F 54.9 °F 29.9 in Calm   1 mph 78% 0 in 37 W/m2
07:04 61.9 °F 54.9 °F 29.9 in Calm   3 mph 78% 0 in 40 W/m2
07:09 61.9 °F 54.9 °F 29.9 in Calm     78% 0 in 35 W/m2
07:14 61.9 °F 54.9 °F 29.9 in Calm   2 mph 78% 0 in 30 W/m2
07:19 61.9 °F 54.9 °F 29.9 in Calm   2 mph 78% 0 in 32 W/m2
07:24 62.1 °F 55 °F 29.9 in NNE 0.9 mph 2 mph 78% 0 in 37 W/m2
07:29 62.1 °F 55 °F 29.9 in Calm   1 mph 78% 0 in 44 W/m2
07:35 62.1 °F 54.7 °F 29.9 in ENE 2 mph 3 mph 77% 0 in 47 W/m2
07:40 62.1 °F 54.7 °F 29.9 in WNW 0.9 mph 2 mph 77% 0 in 51 W/m2
07:45 62.1 °F 54.7 °F 29.9 in Calm   1 mph 77% 0 in 51 W/m2
07:50 62.1 °F 54.7 °F 29.9 in Calm   2 mph 77% 0 in 54 W/m2
07:55 62.2 °F 54.9 °F 29.9 in Calm   3 mph 77% 0 in 58 W/m2
08:00 62.2 °F 54.9 °F 29.9 in Calm   1 mph 77% 0 in 54 W/m2
08:05 62.2 °F 54.9 °F 29.9 in Calm   3 mph 77% 0 in 49 W/m2
08:10 62.2 °F 54.5 °F 29.9 in Calm   1 mph 76% 0 in 53 W/m2
08:15 62.4 °F 54.7 °F 29.9 in NE 0.9 mph 1 mph 76% 0 in 67 W/m2
08:20 62.4 °F 55 °F 29.9 in Calm     77% 0 in 74 W/m2
08:25 62.4 °F 54.7 °F 29.9 in West 2 mph 3 mph 76% 0 in 74 W/m2
08:30 62.6 °F 54.9 °F 29.9 in Calm   1 mph 76% 0 in 79 W/m2
08:35 62.8 °F 55 °F 29.9 in Calm   3 mph 76% 0 in 58 W/m2
08:40 62.8 °F 54.7 °F 29.9 in ENE 0.9 mph 3 mph 75% 0 in 42 W/m2
08:45 62.8 °F 54.7 °F 29.9 in North 0.9 mph 1 mph 75% 0 in 33 W/m2
08:50 62.8 °F 54.7 °F 29.9 in NE 0.9 mph 3 mph 75% 0 in 26 W/m2
08:55 62.8 °F 54.7 °F 29.9 in NNW 2 mph 2 mph 75% 0 in 25 W/m2
09:00 62.8 °F 54.7 °F 29.9 in NNW 2.9 mph 3 mph 75% 0 in 23 W/m2
09:05 62.6 °F 54.9 °F 29.9 in Calm   1 mph 76% 0 in 21 W/m2
09:10 62.6 °F 55.2 °F 29.9 in Calm   1 mph 77% 0 in 21 W/m2
09:15 62.4 °F 55.4 °F 29.9 in Calm     78% 0 in 21 W/m2
09:20 62.2 °F 55.2 °F 29.9 in WNW 0.9 mph 2 mph 78% 0 in 25 W/m2
09:25 62.1 °F 55.8 °F 29.9 in Calm   2 mph 80% 0 in 26 W/m2
09:30 61.9 °F 55.9 °F 29.9 in WNW 0.9 mph 1 mph 81% 0 in 25 W/m2
09:35 61.7 °F 56.5 °F 29.9 in WNW 0.9 mph 1 mph 83% 0.01 in 23 W/m2
09:40 61.5 °F 57 °F 29.9 in Calm     85% 0.01 in 28 W/m2
09:45 61.3 °F 57.2 °F 29.9 in WNW 3 mph 3 mph 86% 0.01 in 28 W/m2
09:50 61 °F 56.8 °F 29.9 in West 0.9 mph 2 mph 86% 0.01 in 32 W/m2
09:55 60.8 °F 56.8 °F 29.9 in West 2 mph 3 mph 87% 0.01 in 37 W/m2
10:00 60.4 °F 56.5 °F 29.9 in West 2 mph 2 mph 87% 0.01 in 44 W/m2
10:05 60.4 °F 56.8 °F 29.9 in West 0.9 mph 2 mph 88% 0.01 in 56 W/m2
10:10 60.4 °F 56.8 °F 29.9 in Calm     88% 0.01 in 60 W/m2
10:15 60.4 °F 56.8 °F 29.9 in Calm   1 mph 88% 0.01 in 72 W/m2
10:20 60.6 °F 57 °F 29.9 in WSW 0.9 mph 3 mph 88% 0.01 in 88 W/m2
10:25 60.8 °F 57.2 °F 29.9 in Calm   2 mph 88% 0.01 in 111 W/m2
10:30 61 °F 57.4 °F 29.9 in WSW 0.9 mph 1 mph 88% 0.01 in 142 W/m2
10:35 61.3 °F 57.7 °F 29.9 in WSW 0.9 mph 1 mph 88% 0 in 172 W/m2
10:40 61.9 °F 58.3 °F 29.9 in SSW 0.9 mph 2 mph 88% 0 in 229 W/m2
10:45 62.2 °F 57.7 °F 29.9 in West 0.9 mph 3 mph 85% 0 in 279 W/m2
10:50 62.8 °F 57.9 °F 29.9 in Calm     84% 0 in 288 W/m2
10:55 63.3 °F 57.7 °F 29.9 in WNW 2 mph 3 mph 82% 0 in 274 W/m2
11:00 63.9 °F 57.9 °F 29.9 in West 0.9 mph 2 mph 81% 0 in 244 W/m2
11:05 64.2 °F 57.9 °F 29.9 in WNW 2 mph 3 mph 80% 0 in 272 W/m2
11:10 64.6 °F 57.2 °F 29.9 in WNW 0.9 mph 1 mph 77% 0 in 295 W/m2
11:16 64.9 °F 57.6 °F 29.9 in Calm   2 mph 77% 0 in 306 W/m2
11:21 65.1 °F 57 °F 29.9 in Calm     75% 0 in 246 W/m2
11:26 65.7 °F 57.2 °F 29.9 in Calm   1 mph 74% 0 in 178 W/m2
11:31 65.8 °F 58.1 °F 29.9 in West 2 mph 2 mph 76% 0 in 179 W/m2
11:36 65.7 °F 58.3 °F 29.9 in Calm   2 mph 77% 0 in 218 W/m2
11:41 65.8 °F 58.8 °F 29.9 in West 4 mph 4 mph 78% 0 in 223 W/m2
11:46 65.8 °F 58.5 °F 29.9 in Calm   2 mph 77% 0 in 183 W/m2
11:51 65.8 °F 58.1 °F 29.9 in West 2 mph 2 mph 76% 0 in 214 W/m2
11:56 65.7 °F 57.6 °F 29.9 in West 2 mph 3 mph 75% 0 in 248 W/m2
12:01 65.8 °F 57.7 °F 29.9 in WNW 4 mph 5 mph 75% 0 in 237 W/m2
12:06 65.8 °F 57.4 °F 29.9 in West 2 mph 4 mph 74% 0 in 199 W/m2
12:11 66 °F 57.6 °F 29.9 in NW 2 mph 4 mph 74% 0 in 218 W/m2
12:16 66.2 °F 57.7 °F 29.9 in NW 2 mph 2 mph 74% 0 in 234 W/m2
12:21 66.4 °F 57.4 °F 29.9 in NW 2.9 mph 3 mph 73% 0 in 253 W/m2
12:26 66.6 °F 57.6 °F 29.9 in North 2 mph 3 mph 73% 0 in 267 W/m2
12:31 66.7 °F 57.4 °F 29.9 in West 4 mph 9 mph 72% 0 in 278 W/m2
12:36 66.7 °F 57.7 °F 29.9 in West 2.9 mph 5 mph 73% 0 in 278 W/m2
12:41 66.7 °F 57.4 °F 29.9 in NNW 2 mph 6 mph 72% 0 in 274 W/m2
12:46 67.1 °F 57.7 °F 29.9 in NW 2 mph 4 mph 72% 0 in 234 W/m2
12:51 67.3 °F 57.6 °F 29.9 in WSW 4 mph 6 mph 71% 0 in 162 W/m2
12:56 67.1 °F 57 °F 29.9 in West 2 mph 8 mph 70% 0 in 146 W/m2
13:01 66.9 °F 56.8 °F 29.9 in West 2.9 mph 6 mph 70% 0 in 162 W/m2
13:06 66.9 °F 57.2 °F 29.9 in WNW 2.9 mph 7 mph 71% 0 in 199 W/m2
13:11 67.3 °F 57.6 °F 29.9 in WNW 2 mph 3 mph 71% 0 in 262 W/m2
13:16 67.5 °F 57 °F 29.9 in West 4 mph 7 mph 69% 0 in 294 W/m2
13:21 67.6 °F 56.7 °F 29.9 in WNW 2.9 mph 8 mph 68% 0 in 274 W/m2
13:26 67.8 °F 57.2 °F 29.9 in WSW 4 mph 6 mph 69% 0 in 265 W/m2
13:31 68 °F 57 °F 29.9 in WNW 6 mph 8 mph 68% 0 in 250 W/m2
13:36 67.8 °F 56.5 °F 29.9 in NW 6 mph 8 mph 67% 0 in 211 W/m2
13:41 67.8 °F 56.5 °F 29.9 in WSW 8.9 mph 10 mph 67% 0 in 202 W/m2
13:46 67.6 °F 56.3 °F 29.9 in West 4 mph 9 mph 67% 0 in 209 W/m2
13:51 67.6 °F 56.3 °F 29.9 in West 4 mph 8 mph 67% 0 in 206 W/m2
13:56 67.6 °F 56.3 °F 29.9 in WNW 2 mph 8 mph 67% 0 in 230 W/m2
14:01 67.8 °F 56.5 °F 29.9 in WSW 6.9 mph 10 mph 67% 0 in 243 W/m2
14:06 67.8 °F 56.1 °F 29.9 in WNW 2 mph 7 mph 66% 0 in 236 W/m2
14:11 68 °F 56.3 °F 29.9 in WNW 2.9 mph 6 mph 66% 0 in 241 W/m2
14:16 68.2 °F 55.9 °F 29.9 in WNW 4 mph 7 mph 65% 0 in 241 W/m2
14:21 68.2 °F 55.6 °F 29.9 in WNW 2 mph 8 mph 64% 0 in 234 W/m2
14:26 68.5 °F 55.9 °F 29.9 in West 2 mph 6 mph 64% 0 in 234 W/m2
14:32 68.5 °F 55.9 °F 29.9 in WNW 4 mph 7 mph 64% 0 in 213 W/m2
14:37 68.7 °F 55.2 °F 29.9 in SW 2.9 mph 10 mph 62% 0 in 202 W/m2
14:42 68.7 °F 55.2 °F 29.9 in West 4 mph 7 mph 62% 0 in 209 W/m2
14:47 68.9 °F 55.8 °F 29.9 in NW 0.9 mph 10 mph 63% 0 in 207 W/m2
14:52 69.3 °F 55.8 °F 29.9 in WSW 4 mph 11 mph 62% 0 in 218 W/m2
14:57 69.3 °F 55.8 °F 29.9 in West 2.9 mph 4 mph 62% 0 in 250 W/m2
15:02 69.4 °F 55.4 °F 29.9 in West 2.9 mph 11 mph 61% 0 in 269 W/m2
15:07 69.6 °F 55.6 °F 29.8 in WNW 4 mph 4 mph 61% 0 in 294 W/m2
15:12 70 °F 55.4 °F 29.8 in West 4 mph 9 mph 60% 0 in 304 W/m2
15:17 70.2 °F 55.2 °F 29.8 in NW 2 mph 10 mph 59% 0 in 271 W/m2
15:22 70.3 °F 55.4 °F 29.8 in West 2.9 mph 6 mph 59% 0 in 237 W/m2
15:27 70.5 °F 58.6 °F 29.8 in Calm   1 mph 66% 0 in 229 W/m2
15:32 70.3 °F 58.8 °F 29.8 in ENE 4.9 mph 6 mph 67% 0 in 236 W/m2
15:37 70 °F 59 °F 29.8 in WNW 2 mph 4 mph 68% 0 in 591 W/m2
15:42 69.8 °F 58.3 °F 29.8 in NE 2.9 mph 8 mph 67% 0 in 253 W/m2
15:47 69.4 °F 58.5 °F 29.8 in West 2.9 mph 3 mph 68% 0 in 239 W/m2
15:52 69.3 °F 58.6 °F 29.8 in West 2 mph 7 mph 69% 0 in 271 W/m2
15:57 68.9 °F 58.3 °F 29.8 in West 2 mph 5 mph 69% 0 in 237 W/m2
16:02 69.1 °F 58.8 °F 29.8 in SSW 2 mph 4 mph 70% 0 in 722 W/m2
16:07 69.6 °F 59.4 °F 29.8 in NNW 0.9 mph 6 mph 70% 0 in 540 W/m2
16:12 69.6 °F 59 °F 29.8 in NE 0.9 mph 1 mph 69% 0 in 279 W/m2
16:17 69.6 °F 59 °F 29.8 in West 2 mph 2 mph 69% 0 in 172 W/m2
Juneau County Weather
Compliments of Weather Underground - 4 mb